sensor_id;sensor_type;location;lat;lon;timestamp;temperature;humidity
63445;DHT22;49573;47.682;9.170;2023-09-08T00:00:46;19.50;79.20
63445;DHT22;49573;47.682;9.170;2023-09-08T00:03:32;19.40;79.40
63445;DHT22;49573;47.682;9.170;2023-09-08T00:06:18;19.40;79.40
63445;DHT22;49573;47.682;9.170;2023-09-08T00:09:04;19.30;79.50
63445;DHT22;49573;47.682;9.170;2023-09-08T00:11:52;19.30;79.80
63445;DHT22;49573;47.682;9.170;2023-09-08T00:14:40;19.30;79.60
63445;DHT22;49573;47.682;9.170;2023-09-08T00:17:26;19.30;79.70
63445;DHT22;49573;47.682;9.170;2023-09-08T00:20:12;19.20;80.00
63445;DHT22;49573;47.682;9.170;2023-09-08T00:22:59;19.20;80.10
63445;DHT22;49573;47.682;9.170;2023-09-08T00:25:45;19.20;80.00
63445;DHT22;49573;47.682;9.170;2023-09-08T00:28:32;19.20;80.00
63445;DHT22;49573;47.682;9.170;2023-09-08T00:31:18;19.10;80.00
63445;DHT22;49573;47.682;9.170;2023-09-08T00:34:04;19.10;80.10
63445;DHT22;49573;47.682;9.170;2023-09-08T00:36:51;19.10;80.30
63445;DHT22;49573;47.682;9.170;2023-09-08T00:39:38;19.00;80.60
63445;DHT22;49573;47.682;9.170;2023-09-08T00:42:24;19.10;80.40
63445;DHT22;49573;47.682;9.170;2023-09-08T00:45:11;19.00;80.80
63445;DHT22;49573;47.682;9.170;2023-09-08T00:47:57;19.00;80.90
63445;DHT22;49573;47.682;9.170;2023-09-08T00:50:44;19.00;80.60
63445;DHT22;49573;47.682;9.170;2023-09-08T00:53:30;18.90;80.50
63445;DHT22;49573;47.682;9.170;2023-09-08T00:56:16;18.90;80.50
63445;DHT22;49573;47.682;9.170;2023-09-08T00:59:04;18.90;80.50
63445;DHT22;49573;47.682;9.170;2023-09-08T01:01:51;18.90;80.60
63445;DHT22;49573;47.682;9.170;2023-09-08T01:04:37;18.80;80.70
63445;DHT22;49573;47.682;9.170;2023-09-08T01:07:27;18.80;81.10
63445;DHT22;49573;47.682;9.170;2023-09-08T01:10:15;18.80;80.80
63445;DHT22;49573;47.682;9.170;2023-09-08T01:13:01;18.80;81.00
63445;DHT22;49573;47.682;9.170;2023-09-08T01:15:49;18.70;81.10
63445;DHT22;49573;47.682;9.170;2023-09-08T01:18:36;18.70;81.10
63445;DHT22;49573;47.682;9.170;2023-09-08T01:21:52;18.60;81.40
63445;DHT22;49573;47.682;9.170;2023-09-08T01:25:12;18.60;81.20
63445;DHT22;49573;47.682;9.170;2023-09-08T01:28:02;18.60;81.30
63445;DHT22;49573;47.682;9.170;2023-09-08T01:30:49;18.60;81.20
63445;DHT22;49573;47.682;9.170;2023-09-08T01:33:36;18.50;81.40
63445;DHT22;49573;47.682;9.170;2023-09-08T01:36:23;18.40;81.50
63445;DHT22;49573;47.682;9.170;2023-09-08T01:39:09;18.40;81.50
63445;DHT22;49573;47.682;9.170;2023-09-08T01:41:56;18.40;81.20
63445;DHT22;49573;47.682;9.170;2023-09-08T01:44:42;18.40;81.10
63445;DHT22;49573;47.682;9.170;2023-09-08T01:47:29;18.40;81.30
63445;DHT22;49573;47.682;9.170;2023-09-08T01:50:16;18.30;81.40
63445;DHT22;49573;47.682;9.170;2023-09-08T01:53:07;18.30;81.40
63445;DHT22;49573;47.682;9.170;2023-09-08T01:55:53;18.30;81.50
63445;DHT22;49573;47.682;9.170;2023-09-08T01:58:40;18.20;81.60
63445;DHT22;49573;47.682;9.170;2023-09-08T02:01:26;18.20;81.70
63445;DHT22;49573;47.682;9.170;2023-09-08T02:04:13;18.20;81.80
63445;DHT22;49573;47.682;9.170;2023-09-08T02:06:59;18.20;81.60
63445;DHT22;49573;47.682;9.170;2023-09-08T02:09:45;18.20;81.80
63445;DHT22;49573;47.682;9.170;2023-09-08T02:12:31;18.20;81.60
63445;DHT22;49573;47.682;9.170;2023-09-08T02:15:19;18.10;81.80
63445;DHT22;49573;47.682;9.170;2023-09-08T02:18:06;18.10;81.60
63445;DHT22;49573;47.682;9.170;2023-09-08T02:20:52;18.00;81.70
63445;DHT22;49573;47.682;9.170;2023-09-08T02:23:38;18.10;81.90
63445;DHT22;49573;47.682;9.170;2023-09-08T02:26:24;18.00;82.00
63445;DHT22;49573;47.682;9.170;2023-09-08T02:29:12;18.00;81.90
63445;DHT22;49573;47.682;9.170;2023-09-08T02:31:59;18.00;82.00
63445;DHT22;49573;47.682;9.170;2023-09-08T02:34:45;18.00;82.00
63445;DHT22;49573;47.682;9.170;2023-09-08T02:37:34;18.00;82.00
63445;DHT22;49573;47.682;9.170;2023-09-08T02:40:20;18.00;82.10
63445;DHT22;49573;47.682;9.170;2023-09-08T02:43:06;18.00;82.00
63445;DHT22;49573;47.682;9.170;2023-09-08T02:45:52;17.90;82.10
63445;DHT22;49573;47.682;9.170;2023-09-08T02:48:40;17.80;82.20
63445;DHT22;49573;47.682;9.170;2023-09-08T02:51:26;17.80;82.30
63445;DHT22;49573;47.682;9.170;2023-09-08T02:54:12;17.80;82.30
63445;DHT22;49573;47.682;9.170;2023-09-08T02:56:58;17.80;82.20
63445;DHT22;49573;47.682;9.170;2023-09-08T02:59:49;17.80;82.10
63445;DHT22;49573;47.682;9.170;2023-09-08T03:02:35;17.70;82.20
63445;DHT22;49573;47.682;9.170;2023-09-08T03:05:23;17.80;82.20
63445;DHT22;49573;47.682;9.170;2023-09-08T03:08:09;17.70;82.40
63445;DHT22;49573;47.682;9.170;2023-09-08T03:10:55;17.60;82.40
63445;DHT22;49573;47.682;9.170;2023-09-08T03:13:42;17.60;82.60
63445;DHT22;49573;47.682;9.170;2023-09-08T03:16:28;17.60;82.70
63445;DHT22;49573;47.682;9.170;2023-09-08T03:19:14;17.60;82.70
63445;DHT22;49573;47.682;9.170;2023-09-08T03:22:01;17.60;82.80
63445;DHT22;49573;47.682;9.170;2023-09-08T03:24:48;17.50;83.10
63445;DHT22;49573;47.682;9.170;2023-09-08T03:27:34;17.50;82.90
63445;DHT22;49573;47.682;9.170;2023-09-08T03:30:20;17.50;82.80
63445;DHT22;49573;47.682;9.170;2023-09-08T03:33:06;17.50;83.00
63445;DHT22;49573;47.682;9.170;2023-09-08T03:35:52;17.40;83.30
63445;DHT22;49573;47.682;9.170;2023-09-08T03:38:40;17.50;83.40
63445;DHT22;49573;47.682;9.170;2023-09-08T03:41:27;17.50;83.20
63445;DHT22;49573;47.682;9.170;2023-09-08T03:44:13;17.40;83.40
63445;DHT22;49573;47.682;9.170;2023-09-08T03:46:59;17.50;83.30
63445;DHT22;49573;47.682;9.170;2023-09-08T03:49:45;17.40;83.40
63445;DHT22;49573;47.682;9.170;2023-09-08T03:52:31;17.40;83.20
63445;DHT22;49573;47.682;9.170;2023-09-08T03:55:18;17.30;83.20
63445;DHT22;49573;47.682;9.170;2023-09-08T03:58:04;17.30;83.10
63445;DHT22;49573;47.682;9.170;2023-09-08T04:00:51;17.30;83.40
63445;DHT22;49573;47.682;9.170;2023-09-08T04:03:37;17.30;83.40
63445;DHT22;49573;47.682;9.170;2023-09-08T04:06:23;17.30;83.30
63445;DHT22;49573;47.682;9.170;2023-09-08T04:09:10;17.30;83.50
63445;DHT22;49573;47.682;9.170;2023-09-08T04:11:57;17.30;83.70
63445;DHT22;49573;47.682;9.170;2023-09-08T04:14:43;17.30;83.50
63445;DHT22;49573;47.682;9.170;2023-09-08T04:17:29;17.30;83.60
63445;DHT22;49573;47.682;9.170;2023-09-08T04:20:16;17.30;83.20
63445;DHT22;49573;47.682;9.170;2023-09-08T04:23:02;17.30;83.40
63445;DHT22;49573;47.682;9.170;2023-09-08T04:25:48;17.30;83.50
63445;DHT22;49573;47.682;9.170;2023-09-08T04:28:35;17.30;83.60
63445;DHT22;49573;47.682;9.170;2023-09-08T04:31:21;17.20;83.70
63445;DHT22;49573;47.682;9.170;2023-09-08T04:34:08;17.20;83.50
63445;DHT22;49573;47.682;9.170;2023-09-08T04:36:54;17.20;83.50
63445;DHT22;49573;47.682;9.170;2023-09-08T04:39:40;17.20;83.30
63445;DHT22;49573;47.682;9.170;2023-09-08T04:42:26;17.20;83.60
63445;DHT22;49573;47.682;9.170;2023-09-08T04:45:13;17.10;83.80
63445;DHT22;49573;47.682;9.170;2023-09-08T04:47:59;17.10;83.70
63445;DHT22;49573;47.682;9.170;2023-09-08T04:50:45;17.10;83.80
63445;DHT22;49573;47.682;9.170;2023-09-08T04:53:31;17.00;83.70
63445;DHT22;49573;47.682;9.170;2023-09-08T04:56:19;17.00;83.80
63445;DHT22;49573;47.682;9.170;2023-09-08T04:59:05;17.00;83.80
63445;DHT22;49573;47.682;9.170;2023-09-08T05:01:52;16.90;84.00
63445;DHT22;49573;47.682;9.170;2023-09-08T05:04:38;16.90;84.30
63445;DHT22;49573;47.682;9.170;2023-09-08T05:07:24;16.90;84.50
63445;DHT22;49573;47.682;9.170;2023-09-08T05:10:10;16.90;84.30
63445;DHT22;49573;47.682;9.170;2023-09-08T05:12:56;16.90;84.20
63445;DHT22;49573;47.682;9.170;2023-09-08T05:15:42;17.00;84.10
63445;DHT22;49573;47.682;9.170;2023-09-08T05:18:31;17.00;84.10
63445;DHT22;49573;47.682;9.170;2023-09-08T05:21:17;16.90;84.20
63445;DHT22;49573;47.682;9.170;2023-09-08T05:24:03;17.00;84.20
63445;DHT22;49573;47.682;9.170;2023-09-08T05:26:50;17.00;84.30
63445;DHT22;49573;47.682;9.170;2023-09-08T05:29:36;16.90;84.50
63445;DHT22;49573;47.682;9.170;2023-09-08T05:32:22;17.00;84.20
63445;DHT22;49573;47.682;9.170;2023-09-08T05:35:09;17.00;84.30
63445;DHT22;49573;47.682;9.170;2023-09-08T05:37:56;17.00;84.50
63445;DHT22;49573;47.682;9.170;2023-09-08T05:40:42;17.10;84.50
63445;DHT22;49573;47.682;9.170;2023-09-08T05:43:28;17.10;84.50
63445;DHT22;49573;47.682;9.170;2023-09-08T05:46:14;17.10;84.60
63445;DHT22;49573;47.682;9.170;2023-09-08T05:49:01;17.20;84.40
63445;DHT22;49573;47.682;9.170;2023-09-08T05:51:48;17.20;84.70
63445;DHT22;49573;47.682;9.170;2023-09-08T05:54:35;17.30;84.70
63445;DHT22;49573;47.682;9.170;2023-09-08T05:57:21;17.30;84.50
63445;DHT22;49573;47.682;9.170;2023-09-08T06:00:08;17.30;84.60
63445;DHT22;49573;47.682;9.170;2023-09-08T06:02:54;17.40;84.50
63445;DHT22;49573;47.682;9.170;2023-09-08T06:05:40;17.50;84.40
63445;DHT22;49573;47.682;9.170;2023-09-08T06:08:28;17.50;84.60
63445;DHT22;49573;47.682;9.170;2023-09-08T06:11:14;17.70;84.40
63445;DHT22;49573;47.682;9.170;2023-09-08T06:14:00;17.70;84.20
63445;DHT22;49573;47.682;9.170;2023-09-08T06:16:46;17.80;84.10
63445;DHT22;49573;47.682;9.170;2023-09-08T06:19:32;17.90;83.80
63445;DHT22;49573;47.682;9.170;2023-09-08T06:22:18;18.00;83.70
63445;DHT22;49573;47.682;9.170;2023-09-08T06:25:06;18.10;83.90
63445;DHT22;49573;47.682;9.170;2023-09-08T06:27:53;18.20;84.10
63445;DHT22;49573;47.682;9.170;2023-09-08T06:30:39;18.20;83.60
63445;DHT22;49573;47.682;9.170;2023-09-08T06:33:27;18.40;83.50
63445;DHT22;49573;47.682;9.170;2023-09-08T06:36:13;18.50;83.40
63445;DHT22;49573;47.682;9.170;2023-09-08T06:38:59;18.60;83.10
63445;DHT22;49573;47.682;9.170;2023-09-08T06:41:47;18.70;82.70
63445;DHT22;49573;47.682;9.170;2023-09-08T06:44:33;18.80;82.60
63445;DHT22;49573;47.682;9.170;2023-09-08T06:47:19;18.90;82.70
63445;DHT22;49573;47.682;9.170;2023-09-08T06:50:06;19.00;82.10
63445;DHT22;49573;47.682;9.170;2023-09-08T06:52:53;19.20;82.70
63445;DHT22;49573;47.682;9.170;2023-09-08T06:55:39;19.30;83.20
63445;DHT22;49573;47.682;9.170;2023-09-08T06:58:26;19.40;82.40
63445;DHT22;49573;47.682;9.170;2023-09-08T07:01:12;19.50;82.40
63445;DHT22;49573;47.682;9.170;2023-09-08T07:03:58;19.60;82.40
63445;DHT22;49573;47.682;9.170;2023-09-08T07:06:44;19.70;82.70
63445;DHT22;49573;47.682;9.170;2023-09-08T07:09:32;19.80;82.30
63445;DHT22;49573;47.682;9.170;2023-09-08T07:12:18;19.90;81.70
63445;DHT22;49573;47.682;9.170;2023-09-08T07:15:06;20.00;81.70
63445;DHT22;49573;47.682;9.170;2023-09-08T07:17:52;20.00;81.40
63445;DHT22;49573;47.682;9.170;2023-09-08T07:20:38;20.10;81.00
63445;DHT22;49573;47.682;9.170;2023-09-08T07:23:24;20.30;80.50
63445;DHT22;49573;47.682;9.170;2023-09-08T07:26:10;20.40;80.40
63445;DHT22;49573;47.682;9.170;2023-09-08T07:28:56;20.50;79.90
63445;DHT22;49573;47.682;9.170;2023-09-08T07:31:44;20.50;79.40
63445;DHT22;49573;47.682;9.170;2023-09-08T07:34:30;20.70;79.70
63445;DHT22;49573;47.682;9.170;2023-09-08T07:37:16;20.80;79.10
63445;DHT22;49573;47.682;9.170;2023-09-08T07:40:03;20.90;79.00
63445;DHT22;49573;47.682;9.170;2023-09-08T07:42:49;20.80;78.60
63445;DHT22;49573;47.682;9.170;2023-09-08T07:45:35;20.90;78.40
63445;DHT22;49573;47.682;9.170;2023-09-08T07:48:22;21.00;78.40
63445;DHT22;49573;47.682;9.170;2023-09-08T07:51:08;21.20;78.70
63445;DHT22;49573;47.682;9.170;2023-09-08T07:53:54;21.30;77.80
63445;DHT22;49573;47.682;9.170;2023-09-08T07:56:41;21.40;77.90
63445;DHT22;49573;47.682;9.170;2023-09-08T07:59:27;21.60;77.70
63445;DHT22;49573;47.682;9.170;2023-09-08T08:02:13;21.70;77.40
63445;DHT22;49573;47.682;9.170;2023-09-08T08:05:01;21.80;76.70
63445;DHT22;49573;47.682;9.170;2023-09-08T08:07:47;21.90;76.40
63445;DHT22;49573;47.682;9.170;2023-09-08T08:10:34;22.00;76.20
63445;DHT22;49573;47.682;9.170;2023-09-08T08:13:20;22.10;75.80
63445;DHT22;49573;47.682;9.170;2023-09-08T08:16:06;22.10;75.60
63445;DHT22;49573;47.682;9.170;2023-09-08T08:18:52;22.10;75.50
63445;DHT22;49573;47.682;9.170;2023-09-08T08:21:40;22.30;74.40
63445;DHT22;49573;47.682;9.170;2023-09-08T08:24:27;22.40;75.10
63445;DHT22;49573;47.682;9.170;2023-09-08T08:27:13;22.60;74.20
63445;DHT22;49573;47.682;9.170;2023-09-08T08:30:00;22.70;74.00
63445;DHT22;49573;47.682;9.170;2023-09-08T08:32:46;22.80;73.40
63445;DHT22;49573;47.682;9.170;2023-09-08T08:35:32;22.90;74.10
63445;DHT22;49573;47.682;9.170;2023-09-08T08:38:20;23.20;73.20
63445;DHT22;49573;47.682;9.170;2023-09-08T08:41:06;23.30;73.10
63445;DHT22;49573;47.682;9.170;2023-09-08T08:43:53;23.30;72.50
63445;DHT22;49573;47.682;9.170;2023-09-08T08:46:40;23.50;72.20
63445;DHT22;49573;47.682;9.170;2023-09-08T08:49:27;23.60;72.60
63445;DHT22;49573;47.682;9.170;2023-09-08T08:52:14;23.80;71.30
63445;DHT22;49573;47.682;9.170;2023-09-08T08:55:02;23.80;70.90
63445;DHT22;49573;47.682;9.170;2023-09-08T08:57:50;23.90;70.50
63445;DHT22;49573;47.682;9.170;2023-09-08T09:00:36;24.10;71.50
63445;DHT22;49573;47.682;9.170;2023-09-08T09:03:26;24.20;68.50
63445;DHT22;49573;47.682;9.170;2023-09-08T09:06:13;24.30;68.40
63445;DHT22;49573;47.682;9.170;2023-09-08T09:08:59;24.30;69.10
63445;DHT22;49573;47.682;9.170;2023-09-08T09:11:48;24.50;69.20
63445;DHT22;49573;47.682;9.170;2023-09-08T09:14:34;24.70;68.20
63445;DHT22;49573;47.682;9.170;2023-09-08T09:17:20;24.80;68.30
63445;DHT22;49573;47.682;9.170;2023-09-08T09:20:14;25.00;67.50
63445;DHT22;49573;47.682;9.170;2023-09-08T09:23:01;25.10;67.70
63445;DHT22;49573;47.682;9.170;2023-09-08T09:25:47;25.30;67.20
63445;DHT22;49573;47.682;9.170;2023-09-08T09:28:46;25.30;65.30
63445;DHT22;49573;47.682;9.170;2023-09-08T09:31:32;25.20;64.90
63445;DHT22;49573;47.682;9.170;2023-09-08T09:34:19;25.20;65.20
63445;DHT22;49573;47.682;9.170;2023-09-08T09:37:06;25.20;65.40
63445;DHT22;49573;47.682;9.170;2023-09-08T09:39:54;25.40;65.90
63445;DHT22;49573;47.682;9.170;2023-09-08T09:42:40;25.80;64.60
63445;DHT22;49573;47.682;9.170;2023-09-08T09:45:28;25.80;63.50
63445;DHT22;49573;47.682;9.170;2023-09-08T09:48:14;25.70;62.40
63445;DHT22;49573;47.682;9.170;2023-09-08T09:51:15;26.00;63.20
63445;DHT22;49573;47.682;9.170;2023-09-08T09:54:04;25.90;62.50
63445;DHT22;49573;47.682;9.170;2023-09-08T09:56:50;25.80;62.80
63445;DHT22;49573;47.682;9.170;2023-09-08T09:59:37;26.20;63.10
63445;DHT22;49573;47.682;9.170;2023-09-08T10:02:26;26.30;61.70
63445;DHT22;49573;47.682;9.170;2023-09-08T10:05:13;26.30;62.10
63445;DHT22;49573;47.682;9.170;2023-09-08T10:08:00;26.40;61.00
63445;DHT22;49573;47.682;9.170;2023-09-08T10:10:46;26.60;61.70
63445;DHT22;49573;47.682;9.170;2023-09-08T10:13:39;26.70;60.50
63445;DHT22;49573;47.682;9.170;2023-09-08T10:16:27;26.60;60.90
63445;DHT22;49573;47.682;9.170;2023-09-08T10:19:18;26.80;61.90
63445;DHT22;49573;47.682;9.170;2023-09-08T10:22:05;27.10;59.90
63445;DHT22;49573;47.682;9.170;2023-09-08T10:24:54;27.30;59.70
63445;DHT22;49573;47.682;9.170;2023-09-08T10:27:41;27.70;60.10
63445;DHT22;49573;47.682;9.170;2023-09-08T10:30:27;28.00;59.10
63445;DHT22;49573;47.682;9.170;2023-09-08T10:33:15;28.30;59.10
63445;DHT22;49573;47.682;9.170;2023-09-08T10:36:04;28.50;59.10
63445;DHT22;49573;47.682;9.170;2023-09-08T10:38:51;28.80;59.10
63445;DHT22;49573;47.682;9.170;2023-09-08T10:41:37;28.50;56.20
63445;DHT22;49573;47.682;9.170;2023-09-08T10:44:23;28.60;58.00
63445;DHT22;49573;47.682;9.170;2023-09-08T10:47:09;29.00;57.00
63445;DHT22;49573;47.682;9.170;2023-09-08T10:49:56;29.20;55.90
63445;DHT22;49573;47.682;9.170;2023-09-08T10:52:44;29.30;56.00
63445;DHT22;49573;47.682;9.170;2023-09-08T10:55:35;29.10;56.10
63445;DHT22;49573;47.682;9.170;2023-09-08T10:58:30;29.10;55.50
63445;DHT22;49573;47.682;9.170;2023-09-08T11:01:20;28.90;54.80
63445;DHT22;49573;47.682;9.170;2023-09-08T11:04:13;29.20;56.20
63445;DHT22;49573;47.682;9.170;2023-09-08T11:07:00;29.80;55.80
63445;DHT22;49573;47.682;9.170;2023-09-08T11:09:48;30.10;56.20
63445;DHT22;49573;47.682;9.170;2023-09-08T11:12:34;29.90;54.50
63445;DHT22;49573;47.682;9.170;2023-09-08T11:15:20;30.10;53.60
63445;DHT22;49573;47.682;9.170;2023-09-08T11:18:07;30.20;53.70
63445;DHT22;49573;47.682;9.170;2023-09-08T11:20:54;30.40;53.10
63445;DHT22;49573;47.682;9.170;2023-09-08T11:23:41;30.80;53.50
63445;DHT22;49573;47.682;9.170;2023-09-08T11:26:28;31.10;53.00
63445;DHT22;49573;47.682;9.170;2023-09-08T11:29:15;31.20;52.70
63445;DHT22;49573;47.682;9.170;2023-09-08T11:32:02;30.90;52.40
63445;DHT22;49573;47.682;9.170;2023-09-08T11:34:49;31.20;51.40
63445;DHT22;49573;47.682;9.170;2023-09-08T11:37:36;30.80;52.00
63445;DHT22;49573;47.682;9.170;2023-09-08T11:40:24;31.40;51.70
63445;DHT22;49573;47.682;9.170;2023-09-08T11:43:11;31.60;50.90
63445;DHT22;49573;47.682;9.170;2023-09-08T11:45:58;32.00;49.80
63445;DHT22;49573;47.682;9.170;2023-09-08T11:48:45;31.80;50.40
63445;DHT22;49573;47.682;9.170;2023-09-08T11:51:31;31.80;49.40
63445;DHT22;49573;47.682;9.170;2023-09-08T11:54:18;32.10;49.40
63445;DHT22;49573;47.682;9.170;2023-09-08T11:57:05;32.40;49.10
63445;DHT22;49573;47.682;9.170;2023-09-08T11:59:55;33.10;48.30
63445;DHT22;49573;47.682;9.170;2023-09-08T12:02:41;33.50;48.00
63445;DHT22;49573;47.682;9.170;2023-09-08T12:05:27;33.50;47.70
63445;DHT22;49573;47.682;9.170;2023-09-08T12:08:14;34.00;46.10
63445;DHT22;49573;47.682;9.170;2023-09-08T12:11:00;34.20;46.10
63445;DHT22;49573;47.682;9.170;2023-09-08T12:13:46;34.30;44.90
63445;DHT22;49573;47.682;9.170;2023-09-08T12:16:33;34.70;45.50
63445;DHT22;49573;47.682;9.170;2023-09-08T12:19:29;35.00;44.00
63445;DHT22;49573;47.682;9.170;2023-09-08T12:22:16;34.20;44.60
63445;DHT22;49573;47.682;9.170;2023-09-08T12:25:08;34.80;44.90
63445;DHT22;49573;47.682;9.170;2023-09-08T12:27:54;35.10;44.60
63445;DHT22;49573;47.682;9.170;2023-09-08T12:30:53;35.70;43.40
63445;DHT22;49573;47.682;9.170;2023-09-08T12:33:41;35.50;43.40
63445;DHT22;49573;47.682;9.170;2023-09-08T12:36:28;35.30;43.30
63445;DHT22;49573;47.682;9.170;2023-09-08T12:39:13;35.10;44.20
63445;DHT22;49573;47.682;9.170;2023-09-08T12:41:59;35.40;43.80
63445;DHT22;49573;47.682;9.170;2023-09-08T12:44:45;35.80;42.30
63445;DHT22;49573;47.682;9.170;2023-09-08T12:47:32;36.20;42.50
63445;DHT22;49573;47.682;9.170;2023-09-08T12:50:19;36.40;41.90
63445;DHT22;49573;47.682;9.170;2023-09-08T12:53:05;36.80;41.50
63445;DHT22;49573;47.682;9.170;2023-09-08T12:55:51;36.90;42.20
63445;DHT22;49573;47.682;9.170;2023-09-08T12:58:37;37.20;40.80
63445;DHT22;49573;47.682;9.170;2023-09-08T13:01:23;37.40;40.30
63445;DHT22;49573;47.682;9.170;2023-09-08T13:04:09;37.60;39.40
63445;DHT22;49573;47.682;9.170;2023-09-08T13:06:56;37.50;40.40
63445;DHT22;49573;47.682;9.170;2023-09-08T13:09:44;37.70;39.30
63445;DHT22;49573;47.682;9.170;2023-09-08T13:12:30;37.30;39.40
63445;DHT22;49573;47.682;9.170;2023-09-08T13:15:17;37.70;39.20
63445;DHT22;49573;47.682;9.170;2023-09-08T13:18:03;37.80;39.10
63445;DHT22;49573;47.682;9.170;2023-09-08T13:20:49;38.30;37.70
63445;DHT22;49573;47.682;9.170;2023-09-08T13:23:36;38.30;38.10
63445;DHT22;49573;47.682;9.170;2023-09-08T13:26:22;38.40;37.50
63445;DHT22;49573;47.682;9.170;2023-09-08T13:29:09;38.60;37.40
63445;DHT22;49573;47.682;9.170;2023-09-08T13:31:55;38.70;38.00
63445;DHT22;49573;47.682;9.170;2023-09-08T13:34:41;38.90;36.10
63445;DHT22;49573;47.682;9.170;2023-09-08T13:37:29;38.70;36.60
63445;DHT22;49573;47.682;9.170;2023-09-08T13:40:18;38.90;36.60
63445;DHT22;49573;47.682;9.170;2023-09-08T13:43:04;39.20;35.80
63445;DHT22;49573;47.682;9.170;2023-09-08T13:45:50;38.90;36.60
63445;DHT22;49573;47.682;9.170;2023-09-08T13:48:36;38.40;37.20
63445;DHT22;49573;47.682;9.170;2023-09-08T13:51:22;38.60;36.30
63445;DHT22;49573;47.682;9.170;2023-09-08T13:54:10;38.30;37.20
63445;DHT22;49573;47.682;9.170;2023-09-08T13:57:02;37.30;37.20
63445;DHT22;49573;47.682;9.170;2023-09-08T13:59:48;37.50;38.30
63445;DHT22;49573;47.682;9.170;2023-09-08T14:02:35;38.10;37.80
63445;DHT22;49573;47.682;9.170;2023-09-08T14:05:22;38.20;37.90
63445;DHT22;49573;47.682;9.170;2023-09-08T14:08:08;38.20;37.60
63445;DHT22;49573;47.682;9.170;2023-09-08T14:10:54;38.60;37.50
63445;DHT22;49573;47.682;9.170;2023-09-08T14:13:41;39.30;36.60
63445;DHT22;49573;47.682;9.170;2023-09-08T14:16:28;39.40;35.40
63445;DHT22;49573;47.682;9.170;2023-09-08T14:19:15;38.70;35.60
63445;DHT22;49573;47.682;9.170;2023-09-08T14:22:01;37.80;37.50
63445;DHT22;49573;47.682;9.170;2023-09-08T14:24:47;37.70;36.90
63445;DHT22;49573;47.682;9.170;2023-09-08T14:27:33;37.80;37.30
63445;DHT22;49573;47.682;9.170;2023-09-08T14:30:20;38.60;36.90
63445;DHT22;49573;47.682;9.170;2023-09-08T14:33:07;38.70;35.80
63445;DHT22;49573;47.682;9.170;2023-09-08T14:35:53;39.10;35.80
63445;DHT22;49573;47.682;9.170;2023-09-08T14:38:40;38.80;36.40
63445;DHT22;49573;47.682;9.170;2023-09-08T14:41:26;38.80;35.90
63445;DHT22;49573;47.682;9.170;2023-09-08T14:44:12;37.90;36.80
63445;DHT22;49573;47.682;9.170;2023-09-08T14:46:59;38.70;36.50
63445;DHT22;49573;47.682;9.170;2023-09-08T14:49:45;39.00;36.70
63445;DHT22;49573;47.682;9.170;2023-09-08T14:52:31;39.50;35.70
63445;DHT22;49573;47.682;9.170;2023-09-08T14:55:17;39.60;35.80
63445;DHT22;49573;47.682;9.170;2023-09-08T14:58:04;39.60;36.10
63445;DHT22;49573;47.682;9.170;2023-09-08T15:00:50;39.70;35.60
63445;DHT22;49573;47.682;9.170;2023-09-08T15:03:38;39.50;35.50
63445;DHT22;49573;47.682;9.170;2023-09-08T15:06:24;39.60;35.30
63445;DHT22;49573;47.682;9.170;2023-09-08T15:09:10;39.70;34.90
63445;DHT22;49573;47.682;9.170;2023-09-08T15:11:56;39.70;35.20
63445;DHT22;49573;47.682;9.170;2023-09-08T15:14:42;39.90;35.60
63445;DHT22;49573;47.682;9.170;2023-09-08T15:17:28;39.90;35.00
63445;DHT22;49573;47.682;9.170;2023-09-08T15:20:16;40.30;35.50
63445;DHT22;49573;47.682;9.170;2023-09-08T15:23:02;40.40;34.70
63445;DHT22;49573;47.682;9.170;2023-09-08T15:25:52;40.70;34.40
63445;DHT22;49573;47.682;9.170;2023-09-08T15:28:38;40.80;33.90
63445;DHT22;49573;47.682;9.170;2023-09-08T15:31:24;40.30;34.10
63445;DHT22;49573;47.682;9.170;2023-09-08T15:34:11;40.60;33.70
63445;DHT22;49573;47.682;9.170;2023-09-08T15:36:59;40.80;33.00
63445;DHT22;49573;47.682;9.170;2023-09-08T15:39:45;40.70;33.30
63445;DHT22;49573;47.682;9.170;2023-09-08T15:42:31;40.80;33.10
63445;DHT22;49573;47.682;9.170;2023-09-08T15:45:18;41.00;33.30
63445;DHT22;49573;47.682;9.170;2023-09-08T15:48:04;40.80;33.60
63445;DHT22;49573;47.682;9.170;2023-09-08T15:50:50;40.80;33.90
63445;DHT22;49573;47.682;9.170;2023-09-08T15:53:38;40.60;34.10
63445;DHT22;49573;47.682;9.170;2023-09-08T15:56:24;40.20;34.30
63445;DHT22;49573;47.682;9.170;2023-09-08T15:59:10;40.00;34.30
63445;DHT22;49573;47.682;9.170;2023-09-08T16:01:56;39.90;35.10
63445;DHT22;49573;47.682;9.170;2023-09-08T16:04:43;39.80;34.70
63445;DHT22;49573;47.682;9.170;2023-09-08T16:07:29;39.90;34.60
63445;DHT22;49573;47.682;9.170;2023-09-08T16:10:17;40.10;34.30
63445;DHT22;49573;47.682;9.170;2023-09-08T16:13:03;40.40;34.10
63445;DHT22;49573;47.682;9.170;2023-09-08T16:15:49;40.60;33.80
63445;DHT22;49573;47.682;9.170;2023-09-08T16:18:35;40.60;34.00
63445;DHT22;49573;47.682;9.170;2023-09-08T16:21:21;40.70;34.00
63445;DHT22;49573;47.682;9.170;2023-09-08T16:24:07;40.80;33.80
63445;DHT22;49573;47.682;9.170;2023-09-08T16:26:55;40.80;34.40
63445;DHT22;49573;47.682;9.170;2023-09-08T16:29:44;40.40;34.70
63445;DHT22;49573;47.682;9.170;2023-09-08T16:32:31;40.20;35.20
63445;DHT22;49573;47.682;9.170;2023-09-08T16:35:17;39.70;35.50
63445;DHT22;49573;47.682;9.170;2023-09-08T16:38:04;39.00;36.40
63445;DHT22;49573;47.682;9.170;2023-09-08T16:40:50;38.30;37.40
63445;DHT22;49573;47.682;9.170;2023-09-08T16:43:38;37.90;38.30
63445;DHT22;49573;47.682;9.170;2023-09-08T16:46:24;37.70;38.90
63445;DHT22;49573;47.682;9.170;2023-09-08T16:49:10;37.60;39.10
63445;DHT22;49573;47.682;9.170;2023-09-08T16:51:56;37.50;39.40
63445;DHT22;49573;47.682;9.170;2023-09-08T16:54:42;37.30;39.70
63445;DHT22;49573;47.682;9.170;2023-09-08T16:57:31;37.20;40.30
63445;DHT22;49573;47.682;9.170;2023-09-08T17:00:18;36.80;40.60
63445;DHT22;49573;47.682;9.170;2023-09-08T17:03:05;36.70;40.90
63445;DHT22;49573;47.682;9.170;2023-09-08T17:05:51;36.30;41.30
63445;DHT22;49573;47.682;9.170;2023-09-08T17:08:37;35.80;42.00
63445;DHT22;49573;47.682;9.170;2023-09-08T17:11:23;35.50;42.40
63445;DHT22;49573;47.682;9.170;2023-09-08T17:14:09;35.10;43.10
63445;DHT22;49573;47.682;9.170;2023-09-08T17:16:57;34.80;43.70
63445;DHT22;49573;47.682;9.170;2023-09-08T17:19:43;34.60;43.90
63445;DHT22;49573;47.682;9.170;2023-09-08T17:22:29;34.40;44.40
63445;DHT22;49573;47.682;9.170;2023-09-08T17:25:15;34.00;45.00
63445;DHT22;49573;47.682;9.170;2023-09-08T17:28:01;33.40;45.90
63445;DHT22;49573;47.682;9.170;2023-09-08T17:30:47;32.80;47.00
63445;DHT22;49573;47.682;9.170;2023-09-08T17:33:35;32.30;48.60